Terminal Aerodrome Forecast
Issued by NWS Cleveland, OH

Home | Current Version | Previous Version | Graphics & Text | Print | Product List | Glossary On
Versions: 1 2 3 4 5 6 7 8 9 10 11 12 13 14 15 16 17 18 19 20
000
FTUS41 KCLE 300500
TAFMFD
TAF
KMFD 300520Z 3006/3106 23016G26KT P6SM -SHRA BKN045 OVC060
      TEMPO 3006/3010 BKN025
     FM301100 28011KT P6SM SCT045 OVC060
     FM301400 27010KT P6SM SCT045 BKN250
      TEMPO 3014/3016 BKN045
     FM301600 26015G25KT P6SM SCT250
     FM302100 26014G22KT P6SM SCT120 BKN250
     FM310200 24007KT P6SM OVC120=

USA.gov is the U.S. government's official web portal to all federal, state and local government web resources and services.